sensor_id;sensor_type;location;lat;lon;timestamp;P1;durP1;ratioP1;P2;durP2;ratioP2
39968;SDS011;25648;47.808;19.004;2023-02-07T00:01:06;0.40;;;0.40;;
39968;SDS011;25648;47.808;19.004;2023-02-07T00:13:52;0.50;;;0.50;;
39968;SDS011;25648;47.808;19.004;2023-02-07T00:20:44;0.50;;;0.50;;
39968;SDS011;25648;47.808;19.004;2023-02-07T03:27:25;0.40;;;0.40;;
39968;SDS011;25648;47.808;19.004;2023-02-07T03:46:11;0.50;;;0.50;;
39968;SDS011;25648;47.808;19.004;2023-02-07T03:48:49;0.50;;;0.50;;
39968;SDS011;25648;47.808;19.004;2023-02-07T05:03:54;0.50;;;0.50;;
39968;SDS011;25648;47.808;19.004;2023-02-07T05:11:51;0.50;;;0.50;;
39968;SDS011;25648;47.808;19.004;2023-02-07T05:14:17;0.45;;;0.45;;
39968;SDS011;25648;47.808;19.004;2023-02-07T05:19:52;0.50;;;0.50;;
39968;SDS011;25648;47.808;19.004;2023-02-07T05:22:20;0.50;;;0.50;;
39968;SDS011;25648;47.808;19.004;2023-02-07T05:35:15;0.43;;;0.43;;
39968;SDS011;25648;47.808;19.004;2023-02-07T05:43:38;0.50;;;0.50;;
39968;SDS011;25648;47.808;19.004;2023-02-07T05:49:20;0.45;;;0.45;;
39968;SDS011;25648;47.808;19.004;2023-02-07T05:55:10;0.40;;;0.40;;
39968;SDS011;25648;47.808;19.004;2023-02-07T05:57:38;0.50;;;0.50;;
39968;SDS011;25648;47.808;19.004;2023-02-07T06:11:58;0.40;;;0.40;;
39968;SDS011;25648;47.808;19.004;2023-02-07T06:14:24;0.50;;;0.50;;
39968;SDS011;25648;47.808;19.004;2023-02-07T06:23:46;0.40;;;0.40;;
39968;SDS011;25648;47.808;19.004;2023-02-07T06:36:40;0.50;;;0.50;;
39968;SDS011;25648;47.808;19.004;2023-02-07T06:39:06;0.40;;;0.40;;
39968;SDS011;25648;47.808;19.004;2023-02-07T06:41:31;0.40;;;0.40;;
39968;SDS011;25648;47.808;19.004;2023-02-07T06:43:57;0.45;;;0.45;;
39968;SDS011;25648;47.808;19.004;2023-02-07T06:46:23;0.50;;;0.50;;
39968;SDS011;25648;47.808;19.004;2023-02-07T06:48:49;0.50;;;0.50;;
39968;SDS011;25648;47.808;19.004;2023-02-07T06:51:14;0.50;;;0.50;;
39968;SDS011;25648;47.808;19.004;2023-02-07T06:53:40;0.50;;;0.50;;
39968;SDS011;25648;47.808;19.004;2023-02-07T06:56:06;0.50;;;0.50;;
39968;SDS011;25648;47.808;19.004;2023-02-07T06:58:47;0.40;;;0.40;;
39968;SDS011;25648;47.808;19.004;2023-02-07T07:01:12;0.40;;;0.40;;
39968;SDS011;25648;47.808;19.004;2023-02-07T07:10:47;0.43;;;0.43;;
39968;SDS011;25648;47.808;19.004;2023-02-07T07:13:13;0.40;;;0.40;;
39968;SDS011;25648;47.808;19.004;2023-02-07T07:15:39;0.40;;;0.40;;
39968;SDS011;25648;47.808;19.004;2023-02-07T07:21:26;0.40;;;0.40;;
39968;SDS011;25648;47.808;19.004;2023-02-07T07:23:52;0.45;;;0.45;;
39968;SDS011;25648;47.808;19.004;2023-02-07T07:26:29;0.50;;;0.50;;
39968;SDS011;25648;47.808;19.004;2023-02-07T07:42:24;0.50;;;0.50;;
39968;SDS011;25648;47.808;19.004;2023-02-07T07:44:50;0.40;;;0.40;;
39968;SDS011;25648;47.808;19.004;2023-02-07T07:47:17;0.40;;;0.40;;
39968;SDS011;25648;47.808;19.004;2023-02-07T07:49:43;0.50;;;0.50;;
39968;SDS011;25648;47.808;19.004;2023-02-07T07:52:12;0.40;;;0.40;;
39968;SDS011;25648;47.808;19.004;2023-02-07T07:54:44;0.40;;;0.40;;
39968;SDS011;25648;47.808;19.004;2023-02-07T08:03:48;0.50;;;0.50;;
39968;SDS011;25648;47.808;19.004;2023-02-07T08:09:32;0.40;;;0.40;;
39968;SDS011;25648;47.808;19.004;2023-02-07T08:11:57;0.40;;;0.40;;
39968;SDS011;25648;47.808;19.004;2023-02-07T08:14:23;0.40;;;0.40;;
39968;SDS011;25648;47.808;19.004;2023-02-07T08:16:49;0.50;;;0.50;;
39968;SDS011;25648;47.808;19.004;2023-02-07T08:19:14;0.50;;;0.50;;
39968;SDS011;25648;47.808;19.004;2023-02-07T08:21:40;0.40;;;0.40;;
39968;SDS011;25648;47.808;19.004;2023-02-07T08:24:06;0.50;;;0.50;;
39968;SDS011;25648;47.808;19.004;2023-02-07T08:26:31;0.45;;;0.45;;
39968;SDS011;25648;47.808;19.004;2023-02-07T08:28:57;0.43;;;0.43;;
39968;SDS011;25648;47.808;19.004;2023-02-07T08:31:22;0.50;;;0.50;;
39968;SDS011;25648;47.808;19.004;2023-02-07T08:33:48;0.40;;;0.40;;
39968;SDS011;25648;47.808;19.004;2023-02-07T08:36:14;0.40;;;0.40;;
39968;SDS011;25648;47.808;19.004;2023-02-07T08:38:40;0.40;;;0.40;;
39968;SDS011;25648;47.808;19.004;2023-02-07T08:41:05;0.40;;;0.40;;
39968;SDS011;25648;47.808;19.004;2023-02-07T08:43:31;0.40;;;0.40;;
39968;SDS011;25648;47.808;19.004;2023-02-07T08:45:57;0.45;;;0.45;;
39968;SDS011;25648;47.808;19.004;2023-02-07T08:48:24;0.50;;;0.50;;
39968;SDS011;25648;47.808;19.004;2023-02-07T08:50:50;0.40;;;0.40;;
39968;SDS011;25648;47.808;19.004;2023-02-07T08:53:16;0.40;;;0.40;;
39968;SDS011;25648;47.808;19.004;2023-02-07T08:55:41;0.40;;;0.40;;
39968;SDS011;25648;47.808;19.004;2023-02-07T09:00:37;0.50;;;0.50;;
39968;SDS011;25648;47.808;19.004;2023-02-07T09:03:04;0.47;;;0.47;;
39968;SDS011;25648;47.808;19.004;2023-02-07T09:05:30;0.50;;;0.50;;
39968;SDS011;25648;47.808;19.004;2023-02-07T09:07:57;0.50;;;0.50;;
39968;SDS011;25648;47.808;19.004;2023-02-07T09:10:24;0.57;;;0.57;;
39968;SDS011;25648;47.808;19.004;2023-02-07T09:12:50;0.45;;;0.45;;
39968;SDS011;25648;47.808;19.004;2023-02-07T09:15:15;0.40;;;0.40;;
39968;SDS011;25648;47.808;19.004;2023-02-07T09:17:41;0.50;;;0.50;;
39968;SDS011;25648;47.808;19.004;2023-02-07T09:20:07;0.45;;;0.45;;
39968;SDS011;25648;47.808;19.004;2023-02-07T09:22:33;0.50;;;0.50;;
39968;SDS011;25648;47.808;19.004;2023-02-07T09:25:19;0.40;;;0.40;;
39968;SDS011;25648;47.808;19.004;2023-02-07T09:27:45;0.50;;;0.50;;
39968;SDS011;25648;47.808;19.004;2023-02-07T09:30:11;0.40;;;0.40;;
39968;SDS011;25648;47.808;19.004;2023-02-07T09:32:36;0.40;;;0.40;;
39968;SDS011;25648;47.808;19.004;2023-02-07T09:35:02;0.40;;;0.40;;
39968;SDS011;25648;47.808;19.004;2023-02-07T09:37:29;0.50;;;0.50;;
39968;SDS011;25648;47.808;19.004;2023-02-07T09:39:55;0.40;;;0.40;;
39968;SDS011;25648;47.808;19.004;2023-02-07T09:42:24;0.50;;;0.50;;
39968;SDS011;25648;47.808;19.004;2023-02-07T09:44:59;0.45;;;0.45;;
39968;SDS011;25648;47.808;19.004;2023-02-07T09:47:45;0.35;;;0.35;;
39968;SDS011;25648;47.808;19.004;2023-02-07T09:50:19;0.40;;;0.40;;
39968;SDS011;25648;47.808;19.004;2023-02-07T09:52:51;0.28;;;0.28;;
39968;SDS011;25648;47.808;19.004;2023-02-07T09:55:22;0.30;;;0.30;;
39968;SDS011;25648;47.808;19.004;2023-02-07T09:57:50;0.38;;;0.38;;
39968;SDS011;25648;47.808;19.004;2023-02-07T10:00:31;0.30;;;0.30;;
39968;SDS011;25648;47.808;19.004;2023-02-07T10:03:18;0.40;;;0.40;;
39968;SDS011;25648;47.808;19.004;2023-02-07T10:08:26;0.40;;;0.40;;
39968;SDS011;25648;47.808;19.004;2023-02-07T10:11:04;0.40;;;0.40;;
39968;SDS011;25648;47.808;19.004;2023-02-07T10:13:42;0.50;;;0.50;;
39968;SDS011;25648;47.808;19.004;2023-02-07T10:19:14;0.40;;;0.40;;
39968;SDS011;25648;47.808;19.004;2023-02-07T10:27:33;0.40;;;0.40;;
39968;SDS011;25648;47.808;19.004;2023-02-07T10:30:11;0.40;;;0.40;;
39968;SDS011;25648;47.808;19.004;2023-02-07T10:32:50;0.30;;;0.30;;
39968;SDS011;25648;47.808;19.004;2023-02-07T10:35:18;0.40;;;0.40;;
39968;SDS011;25648;47.808;19.004;2023-02-07T10:37:52;0.40;;;0.40;;
39968;SDS011;25648;47.808;19.004;2023-02-07T10:43:07;0.40;;;0.40;;
39968;SDS011;25648;47.808;19.004;2023-02-07T10:45:51;0.30;;;0.30;;
39968;SDS011;25648;47.808;19.004;2023-02-07T10:48:20;0.30;;;0.30;;
39968;SDS011;25648;47.808;19.004;2023-02-07T10:50:46;0.30;;;0.30;;
39968;SDS011;25648;47.808;19.004;2023-02-07T10:53:12;0.30;;;0.30;;
39968;SDS011;25648;47.808;19.004;2023-02-07T10:56:21;0.22;;;0.22;;
39968;SDS011;25648;47.808;19.004;2023-02-07T10:58:49;0.30;;;0.30;;
39968;SDS011;25648;47.808;19.004;2023-02-07T11:01:19;0.30;;;0.30;;
39968;SDS011;25648;47.808;19.004;2023-02-07T11:03:47;0.30;;;0.30;;
39968;SDS011;25648;47.808;19.004;2023-02-07T11:06:15;0.30;;;0.30;;
39968;SDS011;25648;47.808;19.004;2023-02-07T11:08:49;0.30;;;0.30;;
39968;SDS011;25648;47.808;19.004;2023-02-07T11:13:48;0.30;;;0.30;;
39968;SDS011;25648;47.808;19.004;2023-02-07T11:16:16;0.20;;;0.20;;
39968;SDS011;25648;47.808;19.004;2023-02-07T11:18:52;0.30;;;0.30;;
39968;SDS011;25648;47.808;19.004;2023-02-07T11:21:29;0.30;;;0.30;;
39968;SDS011;25648;47.808;19.004;2023-02-07T11:24:12;0.20;;;0.20;;
39968;SDS011;25648;47.808;19.004;2023-02-07T11:27:05;0.30;;;0.30;;
39968;SDS011;25648;47.808;19.004;2023-02-07T11:29:37;0.25;;;0.25;;
39968;SDS011;25648;47.808;19.004;2023-02-07T11:32:12;0.30;;;0.30;;
39968;SDS011;25648;47.808;19.004;2023-02-07T11:39:41;0.35;;;0.35;;
39968;SDS011;25648;47.808;19.004;2023-02-07T11:42:12;0.30;;;0.30;;
39968;SDS011;25648;47.808;19.004;2023-02-07T11:44:43;0.30;;;0.30;;
39968;SDS011;25648;47.808;19.004;2023-02-07T11:47:12;0.40;;;0.40;;
39968;SDS011;25648;47.808;19.004;2023-02-07T11:49:44;0.30;;;0.30;;
39968;SDS011;25648;47.808;19.004;2023-02-07T11:52:13;0.30;;;0.30;;
39968;SDS011;25648;47.808;19.004;2023-02-07T11:54:40;0.30;;;0.30;;
39968;SDS011;25648;47.808;19.004;2023-02-07T11:57:12;0.32;;;0.32;;
39968;SDS011;25648;47.808;19.004;2023-02-07T12:02:34;0.30;;;0.30;;
39968;SDS011;25648;47.808;19.004;2023-02-07T12:05:08;0.30;;;0.30;;
39968;SDS011;25648;47.808;19.004;2023-02-07T12:07:57;0.30;;;0.30;;
39968;SDS011;25648;47.808;19.004;2023-02-07T12:10:29;0.30;;;0.30;;
39968;SDS011;25648;47.808;19.004;2023-02-07T12:13:00;0.30;;;0.30;;
39968;SDS011;25648;47.808;19.004;2023-02-07T12:16:07;0.30;;;0.30;;
39968;SDS011;25648;47.808;19.004;2023-02-07T12:21:53;0.20;;;0.20;;
39968;SDS011;25648;47.808;19.004;2023-02-07T12:24:39;0.30;;;0.30;;
39968;SDS011;25648;47.808;19.004;2023-02-07T12:29:53;0.30;;;0.30;;
39968;SDS011;25648;47.808;19.004;2023-02-07T12:32:44;0.32;;;0.32;;
39968;SDS011;25648;47.808;19.004;2023-02-07T12:35:35;0.32;;;0.32;;
39968;SDS011;25648;47.808;19.004;2023-02-07T12:38:14;0.30;;;0.30;;
39968;SDS011;25648;47.808;19.004;2023-02-07T12:50:12;0.30;;;0.30;;
39968;SDS011;25648;47.808;19.004;2023-02-07T13:04:23;0.40;;;0.40;;
39968;SDS011;25648;47.808;19.004;2023-02-07T13:12:56;0.30;;;0.30;;
39968;SDS011;25648;47.808;19.004;2023-02-07T13:15:33;0.20;;;0.20;;
39968;SDS011;25648;47.808;19.004;2023-02-07T13:18:19;0.30;;;0.30;;
39968;SDS011;25648;47.808;19.004;2023-02-07T13:20:52;0.30;;;0.30;;
39968;SDS011;25648;47.808;19.004;2023-02-07T13:23:28;0.30;;;0.30;;
39968;SDS011;25648;47.808;19.004;2023-02-07T13:25:58;0.30;;;0.30;;
39968;SDS011;25648;47.808;19.004;2023-02-07T13:30:58;0.30;;;0.30;;
39968;SDS011;25648;47.808;19.004;2023-02-07T13:33:35;0.30;;;0.30;;
39968;SDS011;25648;47.808;19.004;2023-02-07T13:36:17;0.30;;;0.30;;
39968;SDS011;25648;47.808;19.004;2023-02-07T13:53:16;0.40;;;0.40;;
39968;SDS011;25648;47.808;19.004;2023-02-07T13:55:48;0.30;;;0.30;;
39968;SDS011;25648;47.808;19.004;2023-02-07T14:01:24;0.30;;;0.30;;
39968;SDS011;25648;47.808;19.004;2023-02-07T14:04:02;0.30;;;0.30;;
39968;SDS011;25648;47.808;19.004;2023-02-07T14:06:59;0.30;;;0.30;;
39968;SDS011;25648;47.808;19.004;2023-02-07T14:09:34;0.20;;;0.20;;
39968;SDS011;25648;47.808;19.004;2023-02-07T14:12:27;0.30;;;0.30;;
39968;SDS011;25648;47.808;19.004;2023-02-07T14:14:55;0.30;;;0.30;;
39968;SDS011;25648;47.808;19.004;2023-02-07T14:23:15;0.30;;;0.30;;
39968;SDS011;25648;47.808;19.004;2023-02-07T14:25:44;0.30;;;0.30;;
39968;SDS011;25648;47.808;19.004;2023-02-07T14:28:18;0.30;;;0.30;;
39968;SDS011;25648;47.808;19.004;2023-02-07T14:33:33;0.30;;;0.30;;
39968;SDS011;25648;47.808;19.004;2023-02-07T14:38:29;0.30;;;0.30;;
39968;SDS011;25648;47.808;19.004;2023-02-07T14:41:01;0.40;;;0.40;;
39968;SDS011;25648;47.808;19.004;2023-02-07T14:43:35;0.30;;;0.30;;
39968;SDS011;25648;47.808;19.004;2023-02-07T14:46:07;0.30;;;0.30;;
39968;SDS011;25648;47.808;19.004;2023-02-07T14:48:45;0.30;;;0.30;;
39968;SDS011;25648;47.808;19.004;2023-02-07T14:51:18;0.40;;;0.40;;
39968;SDS011;25648;47.808;19.004;2023-02-07T14:53:45;0.30;;;0.30;;
39968;SDS011;25648;47.808;19.004;2023-02-07T14:56:47;0.40;;;0.40;;
39968;SDS011;25648;47.808;19.004;2023-02-07T14:59:39;0.30;;;0.30;;
39968;SDS011;25648;47.808;19.004;2023-02-07T15:04:51;0.40;;;0.40;;
39968;SDS011;25648;47.808;19.004;2023-02-07T15:07:17;0.30;;;0.30;;
39968;SDS011;25648;47.808;19.004;2023-02-07T15:09:42;0.30;;;0.30;;
39968;SDS011;25648;47.808;19.004;2023-02-07T15:12:09;0.30;;;0.30;;
39968;SDS011;25648;47.808;19.004;2023-02-07T15:14:48;0.30;;;0.30;;
39968;SDS011;25648;47.808;19.004;2023-02-07T15:17:20;0.30;;;0.30;;
39968;SDS011;25648;47.808;19.004;2023-02-07T15:19:50;0.40;;;0.40;;
39968;SDS011;25648;47.808;19.004;2023-02-07T15:22:32;0.40;;;0.40;;
39968;SDS011;25648;47.808;19.004;2023-02-07T15:25:01;0.30;;;0.30;;
39968;SDS011;25648;47.808;19.004;2023-02-07T15:27:40;0.30;;;0.30;;
39968;SDS011;25648;47.808;19.004;2023-02-07T15:30:06;0.30;;;0.30;;
39968;SDS011;25648;47.808;19.004;2023-02-07T15:32:53;0.38;;;0.38;;
39968;SDS011;25648;47.808;19.004;2023-02-07T15:35:20;0.25;;;0.25;;
39968;SDS011;25648;47.808;19.004;2023-02-07T15:37:51;0.30;;;0.30;;
39968;SDS011;25648;47.808;19.004;2023-02-07T15:43:37;0.35;;;0.35;;
39968;SDS011;25648;47.808;19.004;2023-02-07T15:46:24;0.30;;;0.30;;
39968;SDS011;25648;47.808;19.004;2023-02-07T15:48:54;0.30;;;0.30;;
39968;SDS011;25648;47.808;19.004;2023-02-07T15:51:26;0.30;;;0.30;;
39968;SDS011;25648;47.808;19.004;2023-02-07T15:53:57;0.40;;;0.40;;
39968;SDS011;25648;47.808;19.004;2023-02-07T15:56:25;0.30;;;0.30;;
39968;SDS011;25648;47.808;19.004;2023-02-07T15:59:07;0.30;;;0.30;;
39968;SDS011;25648;47.808;19.004;2023-02-07T16:01:34;0.30;;;0.30;;
39968;SDS011;25648;47.808;19.004;2023-02-07T16:04:03;0.30;;;0.30;;
39968;SDS011;25648;47.808;19.004;2023-02-07T16:06:44;0.30;;;0.30;;
39968;SDS011;25648;47.808;19.004;2023-02-07T16:09:37;0.30;;;0.30;;
39968;SDS011;25648;47.808;19.004;2023-02-07T16:15:20;0.40;;;0.40;;
39968;SDS011;25648;47.808;19.004;2023-02-07T16:17:59;0.40;;;0.40;;
39968;SDS011;25648;47.808;19.004;2023-02-07T16:20:26;0.40;;;0.40;;
39968;SDS011;25648;47.808;19.004;2023-02-07T16:22:54;0.30;;;0.30;;
39968;SDS011;25648;47.808;19.004;2023-02-07T16:25:34;0.30;;;0.30;;
39968;SDS011;25648;47.808;19.004;2023-02-07T16:28:00;0.40;;;0.40;;
39968;SDS011;25648;47.808;19.004;2023-02-07T16:30:45;0.30;;;0.30;;
39968;SDS011;25648;47.808;19.004;2023-02-07T16:33:14;0.30;;;0.30;;
39968;SDS011;25648;47.808;19.004;2023-02-07T16:35:40;0.30;;;0.30;;
39968;SDS011;25648;47.808;19.004;2023-02-07T16:38:06;0.30;;;0.30;;
39968;SDS011;25648;47.808;19.004;2023-02-07T16:40:31;0.40;;;0.40;;
39968;SDS011;25648;47.808;19.004;2023-02-07T16:43:10;0.30;;;0.30;;
39968;SDS011;25648;47.808;19.004;2023-02-07T16:46:14;0.30;;;0.30;;
39968;SDS011;25648;47.808;19.004;2023-02-07T16:48:41;0.40;;;0.40;;
39968;SDS011;25648;47.808;19.004;2023-02-07T16:51:09;0.30;;;0.30;;
39968;SDS011;25648;47.808;19.004;2023-02-07T16:53:35;0.30;;;0.30;;
39968;SDS011;25648;47.808;19.004;2023-02-07T16:56:01;0.30;;;0.30;;
39968;SDS011;25648;47.808;19.004;2023-02-07T16:58:33;0.30;;;0.30;;
39968;SDS011;25648;47.808;19.004;2023-02-07T17:03:59;0.40;;;0.40;;
39968;SDS011;25648;47.808;19.004;2023-02-07T17:06:40;0.20;;;0.20;;
39968;SDS011;25648;47.808;19.004;2023-02-07T17:09:25;0.30;;;0.30;;
39968;SDS011;25648;47.808;19.004;2023-02-07T17:11:53;0.30;;;0.30;;
39968;SDS011;25648;47.808;19.004;2023-02-07T17:14:21;0.30;;;0.30;;
39968;SDS011;25648;47.808;19.004;2023-02-07T17:16:47;0.30;;;0.30;;
39968;SDS011;25648;47.808;19.004;2023-02-07T17:19:18;0.30;;;0.30;;
39968;SDS011;25648;47.808;19.004;2023-02-07T17:21:47;0.30;;;0.30;;
39968;SDS011;25648;47.808;19.004;2023-02-07T17:24:14;0.40;;;0.40;;
39968;SDS011;25648;47.808;19.004;2023-02-07T17:26:41;0.40;;;0.40;;
39968;SDS011;25648;47.808;19.004;2023-02-07T17:29:11;0.30;;;0.30;;
39968;SDS011;25648;47.808;19.004;2023-02-07T17:31:37;0.40;;;0.40;;
39968;SDS011;25648;47.808;19.004;2023-02-07T17:34:06;0.40;;;0.40;;
39968;SDS011;25648;47.808;19.004;2023-02-07T17:36:32;0.40;;;0.40;;
39968;SDS011;25648;47.808;19.004;2023-02-07T17:39:06;0.30;;;0.30;;
39968;SDS011;25648;47.808;19.004;2023-02-07T17:41:49;0.40;;;0.40;;
39968;SDS011;25648;47.808;19.004;2023-02-07T17:44:15;0.30;;;0.30;;
39968;SDS011;25648;47.808;19.004;2023-02-07T17:50:19;0.30;;;0.30;;
39968;SDS011;25648;47.808;19.004;2023-02-07T17:53:36;0.40;;;0.40;;
39968;SDS011;25648;47.808;19.004;2023-02-07T17:56:24;0.40;;;0.40;;
39968;SDS011;25648;47.808;19.004;2023-02-07T17:59:05;0.40;;;0.40;;
39968;SDS011;25648;47.808;19.004;2023-02-07T18:01:49;0.30;;;0.30;;
39968;SDS011;25648;47.808;19.004;2023-02-07T18:04:23;0.40;;;0.40;;
39968;SDS011;25648;47.808;19.004;2023-02-07T18:06:50;0.40;;;0.40;;
39968;SDS011;25648;47.808;19.004;2023-02-07T18:09:17;0.30;;;0.30;;
39968;SDS011;25648;47.808;19.004;2023-02-07T18:12:03;0.40;;;0.40;;
39968;SDS011;25648;47.808;19.004;2023-02-07T18:14:46;0.30;;;0.30;;
39968;SDS011;25648;47.808;19.004;2023-02-07T18:17:14;0.30;;;0.30;;
39968;SDS011;25648;47.808;19.004;2023-02-07T18:22:35;0.40;;;0.40;;
39968;SDS011;25648;47.808;19.004;2023-02-07T18:25:06;0.40;;;0.40;;
39968;SDS011;25648;47.808;19.004;2023-02-07T18:27:33;0.40;;;0.40;;
39968;SDS011;25648;47.808;19.004;2023-02-07T18:30:04;0.30;;;0.30;;
39968;SDS011;25648;47.808;19.004;2023-02-07T18:32:31;0.40;;;0.40;;
39968;SDS011;25648;47.808;19.004;2023-02-07T18:35:40;0.40;;;0.40;;
39968;SDS011;25648;47.808;19.004;2023-02-07T18:38:10;0.40;;;0.40;;
39968;SDS011;25648;47.808;19.004;2023-02-07T18:43:12;0.40;;;0.40;;
39968;SDS011;25648;47.808;19.004;2023-02-07T18:45:39;0.40;;;0.40;;
39968;SDS011;25648;47.808;19.004;2023-02-07T18:48:36;0.40;;;0.40;;
39968;SDS011;25648;47.808;19.004;2023-02-07T18:51:28;0.40;;;0.40;;
39968;SDS011;25648;47.808;19.004;2023-02-07T18:54:08;0.40;;;0.40;;
39968;SDS011;25648;47.808;19.004;2023-02-07T18:56:49;0.40;;;0.40;;
39968;SDS011;25648;47.808;19.004;2023-02-07T18:59:35;0.40;;;0.40;;
39968;SDS011;25648;47.808;19.004;2023-02-07T19:02:02;0.40;;;0.40;;
39968;SDS011;25648;47.808;19.004;2023-02-07T19:04:28;0.40;;;0.40;;
39968;SDS011;25648;47.808;19.004;2023-02-07T19:13:59;0.50;;;0.50;;
39968;SDS011;25648;47.808;19.004;2023-02-07T19:17:09;0.40;;;0.40;;
39968;SDS011;25648;47.808;19.004;2023-02-07T19:22:53;0.40;;;0.40;;
39968;SDS011;25648;47.808;19.004;2023-02-07T19:25:19;0.40;;;0.40;;
39968;SDS011;25648;47.808;19.004;2023-02-07T19:28:06;0.32;;;0.32;;
39968;SDS011;25648;47.808;19.004;2023-02-07T19:30:43;0.40;;;0.40;;
39968;SDS011;25648;47.808;19.004;2023-02-07T19:33:15;0.40;;;0.40;;
39968;SDS011;25648;47.808;19.004;2023-02-07T19:35:41;0.35;;;0.35;;
39968;SDS011;25648;47.808;19.004;2023-02-07T19:38:10;0.40;;;0.40;;
39968;SDS011;25648;47.808;19.004;2023-02-07T19:40:55;0.40;;;0.40;;
39968;SDS011;25648;47.808;19.004;2023-02-07T19:46:10;0.40;;;0.40;;
39968;SDS011;25648;47.808;19.004;2023-02-07T19:48:36;0.40;;;0.40;;
39968;SDS011;25648;47.808;19.004;2023-02-07T19:51:06;0.50;;;0.50;;
39968;SDS011;25648;47.808;19.004;2023-02-07T19:53:48;0.40;;;0.40;;
39968;SDS011;25648;47.808;19.004;2023-02-07T19:56:18;0.45;;;0.45;;
39968;SDS011;25648;47.808;19.004;2023-02-07T19:58:46;0.40;;;0.40;;
39968;SDS011;25648;47.808;19.004;2023-02-07T20:01:13;0.40;;;0.40;;
39968;SDS011;25648;47.808;19.004;2023-02-07T20:03:47;0.40;;;0.40;;
39968;SDS011;25648;47.808;19.004;2023-02-07T20:06:21;0.50;;;0.50;;
39968;SDS011;25648;47.808;19.004;2023-02-07T20:08:49;0.40;;;0.40;;
39968;SDS011;25648;47.808;19.004;2023-02-07T20:11:24;0.40;;;0.40;;
39968;SDS011;25648;47.808;19.004;2023-02-07T20:13:56;0.40;;;0.40;;
39968;SDS011;25648;47.808;19.004;2023-02-07T20:16:26;0.43;;;0.43;;
39968;SDS011;25648;47.808;19.004;2023-02-07T20:18:53;0.40;;;0.40;;
39968;SDS011;25648;47.808;19.004;2023-02-07T20:21:20;0.40;;;0.40;;
39968;SDS011;25648;47.808;19.004;2023-02-07T20:23:49;0.50;;;0.50;;
39968;SDS011;25648;47.808;19.004;2023-02-07T20:26:16;0.40;;;0.40;;
39968;SDS011;25648;47.808;19.004;2023-02-07T20:28:58;0.38;;;0.38;;
39968;SDS011;25648;47.808;19.004;2023-02-07T20:31:25;0.40;;;0.40;;
39968;SDS011;25648;47.808;19.004;2023-02-07T20:33:53;0.50;;;0.50;;
39968;SDS011;25648;47.808;19.004;2023-02-07T20:36:21;0.40;;;0.40;;
39968;SDS011;25648;47.808;19.004;2023-02-07T20:38:47;0.40;;;0.40;;
39968;SDS011;25648;47.808;19.004;2023-02-07T20:41:15;0.40;;;0.40;;
39968;SDS011;25648;47.808;19.004;2023-02-07T20:44:06;0.40;;;0.40;;
39968;SDS011;25648;47.808;19.004;2023-02-07T20:46:47;0.40;;;0.40;;
39968;SDS011;25648;47.808;19.004;2023-02-07T20:49:19;0.40;;;0.40;;
39968;SDS011;25648;47.808;19.004;2023-02-07T20:51:58;0.40;;;0.40;;
39968;SDS011;25648;47.808;19.004;2023-02-07T20:54:26;0.40;;;0.40;;
39968;SDS011;25648;47.808;19.004;2023-02-07T20:56:53;0.40;;;0.40;;
39968;SDS011;25648;47.808;19.004;2023-02-07T20:59:27;0.40;;;0.40;;
39968;SDS011;25648;47.808;19.004;2023-02-07T21:01:54;0.40;;;0.40;;
39968;SDS011;25648;47.808;19.004;2023-02-07T21:04:20;0.40;;;0.40;;
39968;SDS011;25648;47.808;19.004;2023-02-07T21:06:52;0.40;;;0.40;;
39968;SDS011;25648;47.808;19.004;2023-02-07T21:09:18;0.40;;;0.40;;
39968;SDS011;25648;47.808;19.004;2023-02-07T21:11:54;0.50;;;0.50;;
39968;SDS011;25648;47.808;19.004;2023-02-07T21:14:22;0.32;;;0.32;;
39968;SDS011;25648;47.808;19.004;2023-02-07T21:16:58;0.40;;;0.40;;
39968;SDS011;25648;47.808;19.004;2023-02-07T21:19:36;0.40;;;0.40;;
39968;SDS011;25648;47.808;19.004;2023-02-07T21:22:09;0.40;;;0.40;;
39968;SDS011;25648;47.808;19.004;2023-02-07T21:24:35;0.30;;;0.30;;
39968;SDS011;25648;47.808;19.004;2023-02-07T21:27:01;0.40;;;0.40;;
39968;SDS011;25648;47.808;19.004;2023-02-07T21:29:39;0.40;;;0.40;;
39968;SDS011;25648;47.808;19.004;2023-02-07T21:34:55;0.40;;;0.40;;
39968;SDS011;25648;47.808;19.004;2023-02-07T21:37:24;0.30;;;0.30;;
39968;SDS011;25648;47.808;19.004;2023-02-07T21:39:59;0.40;;;0.40;;
39968;SDS011;25648;47.808;19.004;2023-02-07T21:42:27;0.40;;;0.40;;
39968;SDS011;25648;47.808;19.004;2023-02-07T21:45:02;0.40;;;0.40;;
39968;SDS011;25648;47.808;19.004;2023-02-07T21:47:29;0.40;;;0.40;;
39968;SDS011;25648;47.808;19.004;2023-02-07T21:49:54;0.40;;;0.40;;
39968;SDS011;25648;47.808;19.004;2023-02-07T21:52:20;0.40;;;0.40;;
39968;SDS011;25648;47.808;19.004;2023-02-07T21:54:46;0.40;;;0.40;;
39968;SDS011;25648;47.808;19.004;2023-02-07T21:57:14;0.40;;;0.40;;
39968;SDS011;25648;47.808;19.004;2023-02-07T21:59:41;0.40;;;0.40;;
39968;SDS011;25648;47.808;19.004;2023-02-07T22:05:08;0.50;;;0.50;;
39968;SDS011;25648;47.808;19.004;2023-02-07T22:07:37;0.40;;;0.40;;
39968;SDS011;25648;47.808;19.004;2023-02-07T22:10:03;0.40;;;0.40;;
39968;SDS011;25648;47.808;19.004;2023-02-07T22:12:30;0.40;;;0.40;;
39968;SDS011;25648;47.808;19.004;2023-02-07T22:15:05;0.40;;;0.40;;
39968;SDS011;25648;47.808;19.004;2023-02-07T22:17:37;0.40;;;0.40;;
39968;SDS011;25648;47.808;19.004;2023-02-07T22:20:03;0.40;;;0.40;;
39968;SDS011;25648;47.808;19.004;2023-02-07T22:22:40;0.50;;;0.50;;
39968;SDS011;25648;47.808;19.004;2023-02-07T22:25:47;0.40;;;0.40;;
39968;SDS011;25648;47.808;19.004;2023-02-07T22:28:27;0.40;;;0.40;;
39968;SDS011;25648;47.808;19.004;2023-02-07T22:30:53;0.40;;;0.40;;
39968;SDS011;25648;47.808;19.004;2023-02-07T22:36:41;0.40;;;0.40;;
39968;SDS011;25648;47.808;19.004;2023-02-07T22:39:15;0.47;;;0.47;;
39968;SDS011;25648;47.808;19.004;2023-02-07T22:41:59;0.40;;;0.40;;
39968;SDS011;25648;47.808;19.004;2023-02-07T22:44:40;0.50;;;0.50;;
39968;SDS011;25648;47.808;19.004;2023-02-07T22:47:06;0.40;;;0.40;;
39968;SDS011;25648;47.808;19.004;2023-02-07T22:49:32;0.50;;;0.50;;
39968;SDS011;25648;47.808;19.004;2023-02-07T22:52:03;0.43;;;0.43;;
39968;SDS011;25648;47.808;19.004;2023-02-07T22:54:29;0.40;;;0.40;;
39968;SDS011;25648;47.808;19.004;2023-02-07T22:57:03;0.50;;;0.50;;
39968;SDS011;25648;47.808;19.004;2023-02-07T22:59:44;0.50;;;0.50;;
39968;SDS011;25648;47.808;19.004;2023-02-07T23:02:09;0.40;;;0.40;;
39968;SDS011;25648;47.808;19.004;2023-02-07T23:04:44;0.50;;;0.50;;
39968;SDS011;25648;47.808;19.004;2023-02-07T23:07:18;0.50;;;0.50;;
39968;SDS011;25648;47.808;19.004;2023-02-07T23:09:50;0.40;;;0.40;;
39968;SDS011;25648;47.808;19.004;2023-02-07T23:12:17;0.40;;;0.40;;
39968;SDS011;25648;47.808;19.004;2023-02-07T23:14:43;0.50;;;0.50;;
39968;SDS011;25648;47.808;19.004;2023-02-07T23:17:21;0.40;;;0.40;;
39968;SDS011;25648;47.808;19.004;2023-02-07T23:19:49;0.50;;;0.50;;
39968;SDS011;25648;47.808;19.004;2023-02-07T23:22:22;0.40;;;0.40;;
39968;SDS011;25648;47.808;19.004;2023-02-07T23:24:56;0.50;;;0.50;;
39968;SDS011;25648;47.808;19.004;2023-02-07T23:27:25;0.40;;;0.40;;
39968;SDS011;25648;47.808;19.004;2023-02-07T23:30:51;0.40;;;0.40;;
39968;SDS011;25648;47.808;19.004;2023-02-07T23:33:23;0.40;;;0.40;;
39968;SDS011;25648;47.808;19.004;2023-02-07T23:35:51;0.40;;;0.40;;
39968;SDS011;25648;47.808;19.004;2023-02-07T23:38:17;0.40;;;0.40;;
39968;SDS011;25648;47.808;19.004;2023-02-07T23:44:06;0.47;;;0.47;;